Star Helena — V7KJ9 — position and weather

sailwx.info

Track history (hours):
 
Tides and Currents Weather Stations Pressure Air Temp Water Temp Dewpoint Dewpoint Depression Visibility Wind Speed Wind Dir Waves Ship Positions

Star Helena

Last reported at 2017-Jun-03 21:12 UTC. Time now 2017-Jun-23 20:50 UTC.
Position N 30°13' E 126°35'.
Warning: this ship's position is 19 days out of date.

Length 229 m; draft 6.2 m.

Type: Cargo ship. MMSI: 538002630.

Date/timePositionNaut miles runAvg speedWind from/ knotsBaromVisibWave heightAir tempDewpointWater temp
2017-Jun-03 21:12N 30°13' E 126°35'811.4
2017-Jun-03 20:29N 30°21' E 126°34'4111.9
2017-Jun-03 17:03N 31°01' E 126°24'112.0
2017-Jun-03 16:59N 31°02' E 126°24'712.2
2017-Jun-03 16:27N 31°08' E 126°23'612.2
2017-Jun-03 15:57N 31°14' E 126°21'3512.3
2017-Jun-03 13:06N 31°49' E 126°13'112.4
2017-Jun-03 13:01N 31°50' E 126°13'712.3
2017-Jun-03 12:27N 31°56' E 126°11'  
2017-May-30 18:57N 36°57' E 126°50'  
2017-May-28 03:01N 34°34' E 124°59'011.4
2017-May-28 02:59N 34°33' E 124°59'611.3
2017-May-28 02:29N 34°29' E 125°02'611.4
2017-May-28 01:59N 34°24' E 125°06'610.8
2017-May-28 01:24N 34°18' E 125°09'1610.1
2017-May-27 23:50N 34°04' E 125°18'4 9.9
2017-May-27 23:25N 34°00' E 125°21'8 9.8
2017-May-27 22:35N 33°53' E 125°26'28 9.3
2017-May-27 19:33N 33°50' E 125°60'110.1
2017-May-27 19:29N 33°50' E 126°00'510.5
2017-May-27 19:00N 33°50' E 126°06'610.7
2017-May-27 18:26N 33°50' E 126°14'  
Track history (hours):
 
Tides and Currents Weather Stations Pressure Air Temp Water Temp Dewpoint Dewpoint Depression Visibility Wind Speed Wind Dir Waves Ship Positions

Star Helena

Last reported at 2017-Jun-03 21:12 UTC. Time now 2017-Jun-23 20:50 UTC.
Position N 30°13' E 126°35'.
Warning: this ship's position is 19 days out of date.

Length 229 m; draft 6.2 m.

Type: Cargo ship. MMSI: 538002630.

Date/timePositionNaut miles runAvg speedWind from/ knotsBaromVisibWave heightAir tempDewpointWater temp
2017-Jun-03 21:12N 30°13' E 126°35'811.4
2017-Jun-03 20:29N 30°21' E 126°34'4111.9
2017-Jun-03 17:03N 31°01' E 126°24'112.0
2017-Jun-03 16:59N 31°02' E 126°24'712.2
2017-Jun-03 16:27N 31°08' E 126°23'612.2
2017-Jun-03 15:57N 31°14' E 126°21'3512.3
2017-Jun-03 13:06N 31°49' E 126°13'112.4
2017-Jun-03 13:01N 31°50' E 126°13'712.3
2017-Jun-03 12:27N 31°56' E 126°11'  
2017-May-30 18:57N 36°57' E 126°50'  
2017-May-28 03:01N 34°34' E 124°59'011.4
2017-May-28 02:59N 34°33' E 124°59'611.3
2017-May-28 02:29N 34°29' E 125°02'611.4
2017-May-28 01:59N 34°24' E 125°06'610.8
2017-May-28 01:24N 34°18' E 125°09'1610.1
2017-May-27 23:50N 34°04' E 125°18'4 9.9
2017-May-27 23:25N 34°00' E 125°21'8 9.8
2017-May-27 22:35N 33°53' E 125°26'28 9.3
2017-May-27 19:33N 33°50' E 125°60'110.1
2017-May-27 19:29N 33°50' E 126°00'510.5
2017-May-27 19:00N 33°50' E 126°06'610.7
2017-May-27 18:26N 33°50' E 126°14'  

Dump ship's entire track history